createdAt,value
2023-04-16T00:01:08.058Z,22.75
2023-04-16T00:03:35.975Z,22.38
2023-04-16T00:06:04.075Z,22.67
2023-04-16T00:08:31.814Z,21.60
2023-04-16T00:10:59.619Z,22.77
2023-04-16T00:13:27.820Z,21.67
2023-04-16T00:15:55.439Z,21.50
2023-04-16T00:18:23.306Z,21.48
2023-04-16T00:20:51.985Z,22.00
2023-04-16T00:23:20.211Z,20.10
2023-04-16T00:25:47.964Z,20.38
2023-04-16T00:28:15.702Z,22.33
2023-04-16T00:30:43.366Z,20.45
2023-04-16T00:33:11.722Z,21.73
2023-04-16T00:35:39.787Z,20.40
2023-04-16T00:38:07.388Z,20.30
2023-04-16T00:40:35.047Z,20.33
2023-04-16T00:43:02.780Z,21.95
2023-04-16T00:45:30.752Z,20.65
2023-04-16T00:48:00.817Z,20.67
2023-04-16T00:50:29.584Z,21.10
2023-04-16T00:52:57.440Z,21.98
2023-04-16T00:55:25.321Z,20.92
2023-04-16T00:57:53.375Z,21.30
2023-04-16T01:00:21.547Z,21.83
2023-04-16T01:02:49.408Z,21.67
2023-04-16T01:05:17.220Z,20.95
2023-04-16T01:07:44.869Z,22.42
2023-04-16T01:10:12.622Z,21.90
2023-04-16T01:12:40.206Z,23.10
2023-04-16T01:15:08.853Z,22.10
2023-04-16T01:17:36.781Z,23.87
2023-04-16T01:20:04.990Z,23.07
2023-04-16T01:22:32.590Z,23.70
2023-04-16T01:25:00.826Z,24.40
2023-04-16T01:27:28.518Z,25.33
2023-04-16T01:29:56.388Z,24.13
2023-04-16T01:32:33.231Z,22.40
2023-04-16T01:35:01.062Z,23.80
2023-04-16T01:37:29.416Z,24.50
2023-04-16T01:39:57.165Z,24.63
2023-04-16T01:42:25.266Z,24.40
2023-04-16T01:44:52.936Z,26.23
2023-04-16T01:47:20.888Z,24.77
2023-04-16T01:49:48.676Z,25.83
2023-04-16T01:52:16.963Z,26.07
2023-04-16T01:54:44.651Z,27.10
2023-04-16T01:57:12.296Z,25.70
2023-04-16T01:59:40.047Z,26.67
2023-04-16T02:02:11.596Z,27.33
2023-04-16T02:04:42.248Z,26.27
2023-04-16T02:07:11.017Z,26.60
2023-04-16T02:09:40.937Z,26.60
2023-04-16T02:12:11.303Z,26.50
2023-04-16T02:14:39.014Z,26.40
2023-04-16T02:17:06.921Z,26.17
2023-04-16T02:19:39.144Z,26.53
2023-04-16T02:22:07.126Z,26.33
2023-04-16T02:24:34.708Z,27.97
2023-04-16T02:27:07.040Z,25.93
2023-04-16T02:29:34.998Z,26.33
2023-04-16T02:32:10.447Z,27.27
2023-04-16T02:34:40.266Z,25.50
2023-04-16T02:37:08.495Z,27.33
2023-04-16T02:39:38.783Z,25.77
2023-04-16T02:42:06.427Z,26.47
2023-04-16T02:44:33.984Z,25.47
2023-04-16T02:47:01.733Z,27.50
2023-04-16T02:49:29.722Z,27.47
2023-04-16T02:51:57.298Z,28.87
2023-04-16T02:54:25.039Z,28.33
2023-04-16T02:56:52.758Z,27.40
2023-04-16T02:59:20.544Z,26.80
2023-04-16T03:01:48.576Z,26.83
2023-04-16T03:04:16.436Z,27.50
2023-04-16T03:06:44.124Z,28.37
2023-04-16T03:09:12.684Z,27.23
2023-04-16T03:11:40.559Z,27.30
2023-04-16T03:14:08.261Z,28.23
2023-04-16T03:16:38.401Z,27.63
2023-04-16T03:19:06.121Z,27.13
2023-04-16T03:21:33.741Z,26.00
2023-04-16T03:24:01.767Z,27.33
2023-04-16T03:26:29.483Z,26.27
2023-04-16T03:28:57.096Z,27.50
2023-04-16T03:31:26.021Z,28.60
2023-04-16T03:33:54.365Z,28.53
2023-04-16T03:36:22.911Z,27.17
2023-04-16T03:38:50.865Z,27.57
2023-04-16T03:41:18.784Z,25.83
2023-04-16T03:43:46.582Z,27.70
2023-04-16T03:46:14.200Z,27.43
2023-04-16T03:48:42.000Z,26.90
2023-04-16T03:51:09.642Z,27.40
2023-04-16T03:53:37.279Z,28.20
2023-04-16T03:56:05.372Z,28.47
2023-04-16T03:58:32.968Z,27.67
2023-04-16T04:01:00.688Z,27.27
2023-04-16T04:03:28.987Z,27.30
2023-04-16T04:05:56.998Z,27.43
2023-04-16T04:08:28.836Z,28.73
2023-04-16T04:10:56.439Z,27.47
2023-04-16T04:13:25.582Z,27.80
2023-04-16T04:15:54.163Z,27.37
2023-04-16T04:18:22.868Z,26.97
2023-04-16T04:20:50.597Z,27.63
2023-04-16T04:23:20.548Z,26.90
2023-04-16T04:25:48.746Z,27.13
2023-04-16T04:28:16.551Z,25.40
2023-04-16T04:30:44.340Z,26.20
2023-04-16T04:33:12.887Z,26.43
2023-04-16T04:35:40.852Z,26.57
2023-04-16T04:38:09.825Z,26.13
2023-04-16T04:40:37.656Z,25.87
2023-04-16T04:43:05.316Z,27.60
2023-04-16T04:45:33.798Z,28.10
2023-04-16T04:48:01.567Z,30.10
2023-04-16T04:50:30.812Z,28.57
2023-04-16T04:52:58.844Z,27.53
2023-04-16T04:55:26.467Z,27.17
2023-04-16T04:57:54.202Z,28.27
2023-04-16T05:00:22.061Z,27.73
2023-04-16T05:02:55.305Z,27.67
2023-04-16T05:05:23.077Z,26.50
2023-04-16T05:07:50.875Z,28.00
2023-04-16T05:10:18.516Z,27.33
2023-04-16T05:12:49.007Z,27.07
2023-04-16T05:15:17.229Z,25.90
2023-04-16T05:17:44.907Z,27.83
2023-04-16T05:20:12.674Z,29.70
2023-04-16T05:22:40.314Z,28.67
2023-04-16T05:25:08.482Z,25.83
2023-04-16T05:27:37.073Z,26.53
2023-04-16T05:30:05.708Z,26.03
2023-04-16T05:32:33.388Z,27.33
2023-04-16T05:35:01.347Z,24.97
2023-04-16T05:37:29.160Z,25.53
2023-04-16T05:39:56.944Z,26.03
2023-04-16T05:42:25.099Z,25.30
2023-04-16T05:44:52.969Z,25.50
2023-04-16T05:47:21.513Z,24.73
2023-04-16T05:49:49.228Z,26.00
2023-04-16T05:52:17.264Z,25.53
2023-04-16T05:54:44.901Z,25.53
2023-04-16T05:57:14.340Z,24.97
2023-04-16T05:59:42.130Z,24.57
2023-04-16T06:02:09.851Z,24.00
2023-04-16T06:04:37.585Z,26.33
2023-04-16T06:07:05.501Z,24.70
2023-04-16T06:09:33.241Z,24.70
2023-04-16T06:12:01.318Z,25.95
2023-04-16T06:14:28.979Z,26.00
2023-04-16T06:16:56.678Z,24.90
2023-04-16T06:19:24.527Z,25.23
2023-04-16T06:21:53.473Z,24.43
2023-04-16T06:24:21.141Z,28.40
2023-04-16T06:26:48.818Z,24.55
2023-04-16T06:29:16.467Z,24.10
2023-04-16T06:31:44.128Z,22.92
2023-04-16T06:34:11.877Z,23.92
2023-04-16T06:36:39.509Z,22.80
2023-04-16T06:39:07.275Z,23.10
2023-04-16T06:41:34.998Z,24.23
2023-04-16T06:44:03.117Z,22.10
2023-04-16T06:46:31.738Z,22.70
2023-04-16T06:48:59.461Z,22.50
2023-04-16T06:51:27.117Z,23.17
2023-04-16T06:53:54.797Z,23.93
2023-04-16T06:56:22.483Z,22.70
2023-04-16T06:58:53.327Z,22.95
2023-04-16T07:01:21.041Z,22.85
2023-04-16T07:03:49.241Z,22.87
2023-04-16T07:06:17.028Z,22.60
2023-04-16T07:08:44.634Z,22.40
2023-04-16T07:11:12.521Z,22.77
2023-04-16T07:13:40.368Z,21.73
2023-04-16T07:16:08.087Z,23.60
2023-04-16T07:18:35.925Z,23.27
2023-04-16T07:21:11.191Z,22.33
2023-04-16T07:23:39.135Z,22.20
2023-04-16T07:26:06.720Z,22.38
2023-04-16T07:28:34.406Z,21.55
2023-04-16T07:31:02.128Z,21.60
2023-04-16T07:33:29.812Z,21.52
2023-04-16T07:36:00.944Z,20.67
2023-04-16T07:38:32.007Z,21.25
2023-04-16T07:41:00.279Z,20.98
2023-04-16T07:43:28.033Z,21.92
2023-04-16T07:45:56.197Z,21.83
2023-04-16T07:48:26.813Z,21.70
2023-04-16T07:50:54.954Z,21.98
2023-04-16T07:53:23.047Z,22.35
2023-04-16T07:55:51.193Z,22.15
2023-04-16T07:58:19.088Z,21.77
2023-04-16T08:00:48.450Z,22.73
2023-04-16T08:03:18.285Z,23.65
2023-04-16T08:05:46.099Z,22.75
2023-04-16T08:08:13.802Z,23.58
2023-04-16T08:10:41.521Z,22.38
2023-04-16T08:13:09.135Z,22.58
2023-04-16T08:15:36.881Z,21.80
2023-04-16T08:18:12.758Z,22.38
2023-04-16T08:20:43.047Z,21.95
2023-04-16T08:23:10.762Z,21.80
2023-04-16T08:25:38.450Z,21.42
2023-04-16T08:28:06.668Z,22.23
2023-04-16T08:30:34.537Z,21.73
2023-04-16T08:33:02.397Z,20.33
2023-04-16T08:35:30.332Z,20.88
2023-04-16T08:38:00.564Z,21.20
2023-04-16T08:40:31.670Z,20.48
2023-04-16T08:43:00.715Z,20.02
2023-04-16T08:45:28.977Z,21.33
2023-04-16T08:47:57.121Z,19.38
2023-04-16T08:50:26.606Z,24.13
2023-04-16T08:53:00.657Z,19.63
2023-04-16T08:55:40.643Z,19.75
2023-04-16T08:58:23.184Z,17.23
2023-04-16T09:00:51.989Z,18.60
2023-04-16T09:03:21.683Z,18.25
2023-04-16T09:05:50.439Z,16.83
2023-04-16T09:08:18.517Z,17.83
2023-04-16T09:10:46.763Z,16.58
2023-04-16T09:13:20.386Z,17.15
2023-04-16T09:15:51.757Z,17.45
2023-04-16T09:18:21.181Z,16.73
2023-04-16T09:20:57.051Z,18.65
2023-04-16T09:23:25.099Z,16.38
2023-04-16T09:25:52.709Z,16.33
2023-04-16T09:28:53.417Z,17.63
2023-04-16T09:31:21.900Z,17.50
2023-04-16T09:34:05.506Z,17.05
2023-04-16T09:36:34.616Z,16.50
2023-04-16T09:39:03.821Z,17.15
2023-04-16T09:41:36.081Z,16.83
2023-04-16T09:44:05.164Z,15.73
2023-04-16T09:46:41.136Z,13.82
2023-04-16T09:49:17.572Z,13.60
2023-04-16T09:51:51.115Z,14.20
2023-04-16T09:54:20.458Z,13.68
2023-04-16T09:56:48.082Z,12.90
2023-04-16T09:59:20.975Z,12.00
2023-04-16T10:01:53.698Z,11.95
2023-04-16T10:04:53.360Z,11.93
2023-04-16T10:07:22.061Z,12.13
2023-04-16T10:09:50.529Z,11.45
2023-04-16T10:12:21.256Z,11.57
2023-04-16T10:14:50.485Z,11.43
2023-04-16T10:17:19.146Z,12.68
2023-04-16T10:19:50.466Z,11.50
2023-04-16T10:22:18.425Z,10.15
2023-04-16T10:24:49.906Z,10.52
2023-04-16T10:27:19.254Z,10.02
2023-04-16T10:29:48.788Z,10.00
2023-04-16T10:32:18.731Z,9.30
2023-04-16T10:34:47.582Z,9.98
2023-04-16T10:37:18.049Z,9.90
2023-04-16T10:39:45.996Z,10.35
2023-04-16T10:42:13.695Z,10.13
2023-04-16T10:44:45.246Z,10.32
2023-04-16T10:47:14.415Z,9.93
2023-04-16T10:49:43.719Z,9.15
2023-04-16T10:52:14.947Z,9.98
2023-04-16T10:54:43.238Z,13.05
2023-04-16T10:57:17.713Z,9.32
2023-04-16T10:59:46.561Z,8.93
2023-04-16T11:02:20.403Z,9.10
2023-04-16T11:04:49.864Z,8.75
2023-04-16T11:07:21.058Z,8.10
2023-04-16T11:10:05.476Z,7.90
2023-04-16T11:12:48.338Z,8.02
2023-04-16T11:15:19.228Z,8.25
2023-04-16T11:17:52.523Z,8.05
2023-04-16T11:20:26.743Z,7.75
2023-04-16T11:22:59.015Z,7.65
2023-04-16T11:25:29.850Z,8.60
2023-04-16T11:28:01.406Z,7.47
2023-04-16T11:30:37.139Z,7.70
2023-04-16T11:33:12.264Z,8.40
2023-04-16T11:35:41.614Z,7.57
2023-04-16T11:38:09.366Z,7.75
2023-04-16T11:40:37.011Z,6.95
2023-04-16T11:43:22.984Z,7.50
2023-04-16T11:46:20.178Z,9.07
2023-04-16T11:48:57.830Z,10.38
2023-04-16T11:51:25.813Z,8.38
2023-04-16T11:54:04.946Z,7.45
2023-04-16T11:56:37.289Z,8.05
2023-04-16T11:59:19.443Z,8.43
2023-04-16T12:01:57.588Z,7.72
2023-04-16T12:04:27.461Z,6.63
2023-04-16T12:07:11.867Z,7.00
2023-04-16T12:09:43.989Z,6.50
2023-04-16T12:12:31.187Z,6.72
2023-04-16T12:15:03.703Z,6.90
2023-04-16T12:17:33.652Z,7.20
2023-04-16T12:20:08.372Z,7.20
2023-04-16T12:22:38.604Z,6.93
2023-04-16T12:25:18.217Z,7.13
2023-04-16T12:27:54.118Z,8.13
2023-04-16T12:30:24.249Z,7.93
2023-04-16T12:33:13.045Z,7.30
2023-04-16T12:35:43.546Z,7.88
2023-04-16T12:38:15.469Z,7.75
2023-04-16T12:40:43.578Z,7.82
2023-04-16T12:43:11.504Z,8.10
2023-04-16T12:45:40.459Z,7.55
2023-04-16T12:48:08.445Z,7.50
2023-04-16T12:50:36.409Z,7.57
2023-04-16T12:53:05.135Z,7.85
2023-04-16T12:55:32.836Z,7.20
2023-04-16T12:58:00.922Z,7.72
2023-04-16T13:00:28.738Z,7.72
2023-04-16T13:02:56.652Z,8.07
2023-04-16T13:05:24.461Z,9.07
2023-04-16T13:07:52.181Z,9.32
2023-04-16T13:10:22.204Z,8.10
2023-04-16T13:12:49.875Z,12.15
2023-04-16T13:15:17.666Z,9.43
2023-04-16T13:17:46.124Z,8.55
2023-04-16T13:20:13.878Z,9.25
2023-04-16T13:22:41.570Z,8.38
2023-04-16T13:25:10.137Z,8.55
2023-04-16T13:27:37.910Z,8.80
2023-04-16T13:30:06.565Z,9.63
2023-04-16T13:32:34.579Z,8.05
2023-04-16T13:35:05.276Z,7.80
2023-04-16T13:37:34.257Z,8.90
2023-04-16T13:40:02.136Z,10.52
2023-04-16T13:42:30.039Z,8.77
2023-04-16T13:44:58.384Z,9.55
2023-04-16T13:47:26.248Z,8.68
2023-04-16T13:49:54.148Z,9.57
2023-04-16T13:52:22.055Z,8.05
2023-04-16T13:54:50.250Z,8.18
2023-04-16T13:57:20.911Z,7.55
2023-04-16T13:59:48.648Z,7.93
2023-04-16T14:02:16.658Z,8.05
2023-04-16T14:04:44.336Z,7.13
2023-04-16T14:07:13.325Z,7.43
2023-04-16T14:09:41.105Z,8.18
2023-04-16T14:12:09.084Z,8.27
2023-04-16T14:14:36.868Z,8.57
2023-04-16T14:17:04.561Z,8.95
2023-04-16T14:19:32.263Z,8.68
2023-04-16T14:21:59.859Z,9.05
2023-04-16T14:24:27.810Z,8.25
2023-04-16T14:26:55.797Z,7.78
2023-04-16T14:29:26.640Z,7.72
2023-04-16T14:31:58.902Z,8.02
2023-04-16T14:34:29.844Z,8.18
2023-04-16T14:36:58.396Z,8.35
2023-04-16T14:39:27.090Z,8.55
2023-04-16T14:41:57.848Z,6.95
2023-04-16T14:44:25.669Z,7.20
2023-04-16T14:46:54.028Z,7.82
2023-04-16T14:49:24.108Z,7.95
2023-04-16T14:51:52.392Z,8.30
2023-04-16T14:54:20.423Z,8.05
2023-04-16T14:56:50.382Z,8.27
2023-04-16T14:59:18.118Z,7.47
2023-04-16T15:01:46.301Z,8.95
2023-04-16T15:04:14.480Z,7.95
2023-04-16T15:06:42.565Z,8.30
2023-04-16T15:09:10.535Z,8.43
2023-04-16T15:11:38.316Z,8.07
2023-04-16T15:14:06.890Z,7.55
2023-04-16T15:16:34.892Z,7.97
2023-04-16T15:19:05.036Z,7.95
2023-04-16T15:21:33.039Z,7.50
2023-04-16T15:24:01.251Z,7.50
2023-04-16T15:26:30.344Z,7.75
2023-04-16T15:28:58.314Z,7.80
2023-04-16T15:31:26.605Z,8.30
2023-04-16T15:33:56.952Z,7.88
2023-04-16T15:36:24.852Z,8.05
2023-04-16T15:38:52.987Z,7.40
2023-04-16T15:41:21.979Z,7.80
2023-04-16T15:43:50.283Z,7.68
2023-04-16T15:46:17.928Z,9.00
2023-04-16T15:48:46.048Z,10.25
2023-04-16T15:51:14.728Z,9.82
2023-04-16T15:53:44.634Z,8.52
2023-04-16T15:56:12.558Z,8.15
2023-04-16T15:58:40.366Z,8.15
2023-04-16T16:01:08.573Z,8.35
2023-04-16T16:03:36.289Z,7.80
2023-04-16T16:06:04.664Z,7.07
2023-04-16T16:08:38.154Z,7.10
2023-04-16T16:11:06.053Z,7.32
2023-04-16T16:13:33.947Z,8.63
2023-04-16T16:16:01.813Z,7.85
2023-04-16T16:18:30.414Z,9.32
2023-04-16T16:20:59.065Z,8.32
2023-04-16T16:23:27.198Z,10.43
2023-04-16T16:25:55.352Z,8.07
2023-04-16T16:28:24.991Z,8.70
2023-04-16T16:30:54.907Z,8.80
2023-04-16T16:33:22.659Z,8.40
2023-04-16T16:35:50.652Z,7.90
2023-04-16T16:38:18.329Z,8.55
2023-04-16T16:40:46.204Z,7.82
2023-04-16T16:43:47.669Z,8.27
2023-04-16T16:46:21.091Z,10.77
2023-04-16T16:48:49.251Z,7.40
2023-04-16T16:51:18.908Z,7.45
2023-04-16T16:53:49.439Z,5.88
2023-04-16T16:56:17.323Z,5.40
2023-04-16T16:58:47.679Z,5.03
2023-04-16T17:01:15.658Z,5.50
2023-04-16T17:03:43.567Z,4.90
2023-04-16T17:06:11.831Z,4.90
2023-04-16T17:08:39.997Z,43.72
2023-04-16T17:11:07.729Z,13.60
2023-04-16T17:13:35.982Z,5.45
2023-04-16T17:16:03.924Z,6.50
2023-04-16T17:18:35.697Z,4.32
2023-04-16T17:21:03.482Z,4.35
2023-04-16T17:23:31.133Z,4.50
2023-04-16T17:26:02.067Z,3.70
2023-04-16T17:28:29.907Z,3.78
2023-04-16T17:30:57.781Z,4.22
2023-04-16T17:33:25.563Z,4.60
2023-04-16T17:35:53.226Z,5.53
2023-04-16T17:38:23.521Z,5.00
2023-04-16T17:40:51.190Z,4.28
2023-04-16T17:43:19.326Z,3.65
2023-04-16T17:45:50.909Z,3.40
2023-04-16T17:48:19.086Z,3.67
2023-04-16T17:50:46.809Z,3.42
2023-04-16T17:53:17.689Z,3.78
2023-04-16T17:55:55.252Z,3.65
2023-04-16T17:58:26.414Z,3.47
2023-04-16T18:00:54.335Z,3.55
2023-04-16T18:03:22.358Z,3.85
2023-04-16T18:05:50.437Z,4.43
2023-04-16T18:08:18.224Z,4.15
2023-04-16T18:10:45.953Z,3.63
2023-04-16T18:13:13.639Z,3.60
2023-04-16T18:15:44.255Z,4.18
2023-04-16T18:18:14.967Z,4.30
2023-04-16T18:20:43.084Z,4.93
2023-04-16T18:23:10.846Z,4.80
2023-04-16T18:28:07.393Z,4.63
2023-04-16T18:30:35.522Z,4.45
2023-04-16T18:35:33.945Z,4.68
2023-04-16T18:38:02.179Z,4.90
2023-04-16T18:40:35.820Z,4.65
2023-04-16T18:43:05.299Z,5.18
2023-04-16T18:45:38.265Z,5.05
2023-04-16T18:48:06.424Z,5.25
2023-04-16T18:50:35.046Z,4.85
2023-04-16T18:53:02.752Z,4.50
2023-04-16T18:55:33.190Z,4.78
2023-04-16T18:58:00.950Z,5.03
2023-04-16T19:00:28.665Z,4.35
2023-04-16T19:02:57.322Z,5.72
2023-04-16T19:05:25.294Z,6.93
2023-04-16T19:07:54.304Z,4.47
2023-04-16T19:10:22.022Z,4.82
2023-04-16T19:12:50.143Z,4.65
2023-04-16T19:15:18.285Z,4.70
2023-04-16T19:17:46.656Z,5.28
2023-04-16T19:20:15.313Z,4.68
2023-04-16T19:22:45.876Z,5.20
2023-04-16T19:25:13.612Z,5.40
2023-04-16T19:27:41.469Z,5.43
2023-04-16T19:30:10.441Z,8.15
2023-04-16T19:32:38.517Z,5.80
2023-04-16T19:35:09.507Z,5.75
2023-04-16T19:37:37.272Z,7.20
2023-04-16T19:40:06.601Z,5.63
2023-04-16T19:42:34.354Z,5.80
2023-04-16T19:45:05.104Z,5.25
2023-04-16T19:47:32.867Z,5.28
2023-04-16T19:50:00.619Z,4.90
2023-04-16T19:52:28.392Z,5.18
2023-04-16T19:54:56.057Z,4.95
2023-04-16T19:57:23.759Z,4.85
2023-04-16T19:59:52.137Z,4.95
2023-04-16T20:02:21.329Z,4.72
2023-04-16T20:04:49.222Z,4.22
2023-04-16T20:07:18.232Z,5.13
2023-04-16T20:09:46.002Z,4.63
2023-04-16T20:12:14.330Z,4.53
2023-04-16T20:14:43.962Z,4.43
2023-04-16T20:17:11.683Z,4.40
2023-04-16T20:19:39.405Z,4.20
2023-04-16T20:22:07.361Z,4.30
2023-04-16T20:24:35.261Z,4.10
2023-04-16T20:27:02.899Z,3.30
2023-04-16T20:29:30.717Z,4.15
2023-04-16T20:31:58.435Z,4.07
2023-04-16T20:34:27.757Z,4.38
2023-04-16T20:36:55.404Z,3.90
2023-04-16T20:39:27.415Z,4.30
2023-04-16T20:41:57.804Z,4.30
2023-04-16T20:44:40.378Z,4.10
2023-04-16T20:47:09.233Z,3.70
2023-04-16T20:49:38.321Z,3.90
2023-04-16T20:52:07.342Z,3.83
2023-04-16T20:54:35.015Z,4.20
2023-04-16T20:57:04.616Z,3.78
2023-04-16T20:59:32.643Z,3.80
2023-04-16T21:02:00.566Z,3.75
2023-04-16T21:04:28.321Z,4.20
2023-04-16T21:06:56.296Z,4.03
2023-04-16T21:09:24.240Z,4.25
2023-04-16T21:11:51.853Z,4.20
2023-04-16T21:14:19.497Z,4.07
2023-04-16T21:16:47.160Z,3.80
2023-04-16T21:19:14.738Z,4.00
2023-04-16T21:21:42.586Z,4.00
2023-04-16T21:24:10.273Z,4.25
2023-04-16T21:26:37.857Z,4.30
2023-04-16T21:29:11.780Z,4.00
2023-04-16T21:31:50.819Z,4.27
2023-04-16T21:34:18.907Z,4.30
2023-04-16T21:36:46.508Z,4.43
2023-04-16T21:39:15.907Z,4.35
2023-04-16T21:41:43.682Z,4.20
2023-04-16T21:44:12.768Z,4.25
2023-04-16T21:46:40.429Z,4.20
2023-04-16T21:49:08.197Z,4.53
2023-04-16T21:51:36.192Z,4.07
2023-04-16T21:54:04.455Z,3.85
2023-04-16T21:56:32.136Z,4.50
2023-04-16T21:59:00.383Z,4.97
2023-04-16T22:01:28.615Z,4.90
2023-04-16T22:03:56.355Z,4.80
2023-04-16T22:06:24.065Z,4.03
2023-04-16T22:08:55.318Z,4.60
2023-04-16T22:11:22.934Z,4.10
2023-04-16T22:13:50.664Z,4.80
2023-04-16T22:16:18.507Z,4.37
2023-04-16T22:18:47.281Z,4.30
2023-04-16T22:21:14.927Z,4.30
2023-04-16T22:23:42.708Z,4.70
2023-04-16T22:26:10.618Z,4.60
2023-04-16T22:28:38.274Z,4.50
2023-04-16T22:31:06.009Z,4.37
2023-04-16T22:33:33.657Z,5.00
2023-04-16T22:36:01.264Z,4.73
2023-04-16T22:38:28.989Z,4.90
2023-04-16T22:40:56.670Z,5.20
2023-04-16T22:43:24.260Z,5.30
2023-04-16T22:46:04.902Z,5.00
2023-04-16T22:48:38.606Z,5.57
2023-04-16T22:51:08.752Z,5.83
2023-04-16T22:53:36.784Z,5.37
2023-04-16T22:56:04.556Z,6.40
2023-04-16T22:58:35.085Z,6.00
2023-04-16T23:01:03.214Z,5.83
2023-04-16T23:03:31.337Z,6.10
2023-04-16T23:05:59.160Z,6.00
2023-04-16T23:08:26.730Z,6.80
2023-04-16T23:10:54.553Z,5.90
2023-04-16T23:13:22.287Z,6.23
2023-04-16T23:15:49.999Z,6.30
2023-04-16T23:18:17.734Z,6.30
2023-04-16T23:20:45.563Z,6.77
2023-04-16T23:23:13.261Z,5.97
2023-04-16T23:25:41.722Z,6.90
2023-04-16T23:28:09.442Z,6.83
2023-04-16T23:30:37.225Z,6.83
2023-04-16T23:33:05.058Z,6.87
2023-04-16T23:35:32.799Z,7.10
2023-04-16T23:38:00.574Z,7.47
2023-04-16T23:40:31.035Z,7.60
2023-04-16T23:42:58.815Z,7.70
2023-04-16T23:45:26.387Z,7.73
2023-04-16T23:47:54.030Z,6.80
2023-04-16T23:50:21.717Z,7.90
2023-04-16T23:52:49.372Z,7.43
2023-04-16T23:55:17.045Z,7.60
2023-04-16T23:57:44.650Z,7.90
